sensor_id;sensor_type;location;lat;lon;timestamp;pressure;altitude;pressure_sealevel;temperature;humidity
13968;BME280;39536;52.198;9.920;2023-11-22T00:00:29;101756.94;;;4.83;100.00
13968;BME280;39536;52.198;9.920;2023-11-22T00:02:56;101754.34;;;4.84;100.00
13968;BME280;39536;52.198;9.920;2023-11-22T00:05:23;101762.09;;;4.84;100.00
13968;BME280;39536;52.198;9.920;2023-11-22T00:07:50;101762.06;;;4.81;100.00
13968;BME280;39536;52.198;9.920;2023-11-22T00:10:17;101754.31;;;4.81;100.00
13968;BME280;39536;52.198;9.920;2023-11-22T00:12:43;101762.88;;;4.77;100.00
13968;BME280;39536;52.198;9.920;2023-11-22T00:15:11;101774.81;;;4.69;100.00
13968;BME280;39536;52.198;9.920;2023-11-22T00:17:43;101776.44;;;4.58;100.00
13968;BME280;39536;52.198;9.920;2023-11-22T00:20:10;101779.84;;;4.55;100.00
13968;BME280;39536;52.198;9.920;2023-11-22T00:22:37;101790.97;;;4.53;100.00
13968;BME280;39536;52.198;9.920;2023-11-22T00:25:05;101794.22;;;4.36;100.00
13968;BME280;39536;52.198;9.920;2023-11-22T00:27:31;101795.97;;;4.40;100.00
13968;BME280;39536;52.198;9.920;2023-11-22T00:29:58;101794.16;;;4.33;100.00
13968;BME280;39536;52.198;9.920;2023-11-22T00:32:27;101790.69;;;4.31;100.00
13968;BME280;39536;52.198;9.920;2023-11-22T00:34:53;101787.19;;;4.26;100.00
13968;BME280;39536;52.198;9.920;2023-11-22T00:37:20;101777.75;;;4.28;100.00
13968;BME280;39536;52.198;9.920;2023-11-22T00:39:47;101785.63;;;4.39;100.00
13968;BME280;39536;52.198;9.920;2023-11-22T00:42:13;101794.34;;;4.46;100.00
13968;BME280;39536;52.198;9.920;2023-11-22T00:44:40;101793.41;;;4.40;100.00
13968;BME280;39536;52.198;9.920;2023-11-22T00:47:07;101794.34;;;4.46;100.00
13968;BME280;39536;52.198;9.920;2023-11-22T00:49:35;101790.84;;;4.44;100.00
13968;BME280;39536;52.198;9.920;2023-11-22T00:52:01;101786.56;;;4.43;100.00
13968;BME280;39536;52.198;9.920;2023-11-22T00:54:29;101796.03;;;4.45;100.00
13968;BME280;39536;52.198;9.920;2023-11-22T00:56:55;101795.13;;;4.42;100.00
13968;BME280;39536;52.198;9.920;2023-11-22T00:59:22;101792.50;;;4.37;100.00
13968;BME280;39536;52.198;9.920;2023-11-22T01:01:49;101796.63;;;4.26;100.00
13968;BME280;39536;52.198;9.920;2023-11-22T01:04:15;101798.44;;;4.31;100.00
13968;BME280;39536;52.198;9.920;2023-11-22T01:06:43;101805.28;;;4.28;100.00
13968;BME280;39536;52.198;9.920;2023-11-22T01:09:10;101807.81;;;4.25;100.00
13968;BME280;39536;52.198;9.920;2023-11-22T01:11:39;101817.13;;;4.15;100.00
13968;BME280;39536;52.198;9.920;2023-11-22T01:14:05;101816.16;;;4.08;100.00
13968;BME280;39536;52.198;9.920;2023-11-22T01:16:32;101823.69;;;3.93;100.00
13968;BME280;39536;52.198;9.920;2023-11-22T01:18:59;101829.69;;;3.93;100.00
13968;BME280;39536;52.198;9.920;2023-11-22T01:21:26;101826.94;;;3.83;100.00
13968;BME280;39536;52.198;9.920;2023-11-22T01:23:54;101842.44;;;3.84;100.00
13968;BME280;39536;52.198;9.920;2023-11-22T01:26:21;101842.97;;;3.65;100.00
13968;BME280;39536;52.198;9.920;2023-11-22T01:28:49;101849.69;;;3.55;100.00
13968;BME280;39536;52.198;9.920;2023-11-22T01:31:16;101859.94;;;3.54;100.00
13968;BME280;39536;52.198;9.920;2023-11-22T01:33:46;101847.75;;;3.45;100.00
13968;BME280;39536;52.198;9.920;2023-11-22T01:36:13;101856.13;;;3.33;100.00
13968;BME280;39536;52.198;9.920;2023-11-22T01:38:40;101865.44;;;3.25;100.00
13968;BME280;39536;52.198;9.920;2023-11-22T01:41:11;101868.94;;;3.30;100.00
13968;BME280;39536;52.198;9.920;2023-11-22T01:43:38;101870.13;;;3.46;100.00
13968;BME280;39536;52.198;9.920;2023-11-22T01:46:07;101866.81;;;3.53;100.00
13968;BME280;39536;52.198;9.920;2023-11-22T01:48:34;101863.44;;;3.56;100.00
13968;BME280;39536;52.198;9.920;2023-11-22T01:51:01;101860.00;;;3.55;100.00
13968;BME280;39536;52.198;9.920;2023-11-22T01:53:28;101861.56;;;3.47;100.00
13968;BME280;39536;52.198;9.920;2023-11-22T01:55:55;101858.16;;;3.50;100.00
13968;BME280;39536;52.198;9.920;2023-11-22T01:58:23;101854.84;;;3.55;100.00
13968;BME280;39536;52.198;9.920;2023-11-22T02:00:50;101854.78;;;3.54;100.00
13968;BME280;39536;52.198;9.920;2023-11-22T02:03:18;101853.09;;;3.54;100.00
13968;BME280;39536;52.198;9.920;2023-11-22T02:05:46;101847.00;;;3.49;100.00
13968;BME280;39536;52.198;9.920;2023-11-22T02:08:13;101858.34;;;3.59;100.00
13968;BME280;39536;52.198;9.920;2023-11-22T02:10:40;101862.56;;;3.57;100.00
13968;BME280;39536;52.198;9.920;2023-11-22T02:13:07;101864.06;;;3.44;100.00
13968;BME280;39536;52.198;9.920;2023-11-22T02:15:37;101863.22;;;3.43;100.00
13968;BME280;39536;52.198;9.920;2023-11-22T02:18:04;101874.38;;;3.44;100.00
13968;BME280;39536;52.198;9.920;2023-11-22T02:20:32;101871.75;;;3.41;100.00
13968;BME280;39536;52.198;9.920;2023-11-22T02:23:03;101871.63;;;3.35;100.00
13968;BME280;39536;52.198;9.920;2023-11-22T02:25:33;101876.38;;;3.13;100.00
13968;BME280;39536;52.198;9.920;2023-11-22T02:28:01;101869.44;;;3.11;100.00
13968;BME280;39536;52.198;9.920;2023-11-22T02:30:28;101871.16;;;3.10;100.00
13968;BME280;39536;52.198;9.920;2023-11-22T02:32:54;101864.16;;;3.03;100.00
13968;BME280;39536;52.198;9.920;2023-11-22T02:35:21;101871.03;;;3.03;100.00
13968;BME280;39536;52.198;9.920;2023-11-22T02:37:48;101868.16;;;2.89;100.00
13968;BME280;39536;52.198;9.920;2023-11-22T02:40:17;101871.53;;;2.86;100.00
13968;BME280;39536;52.198;9.920;2023-11-22T02:42:44;101867.22;;;2.84;100.00
13968;BME280;39536;52.198;9.920;2023-11-22T02:45:11;101864.53;;;2.79;100.00
13968;BME280;39536;52.198;9.920;2023-11-22T02:47:39;101877.59;;;2.88;100.00
13968;BME280;39536;52.198;9.920;2023-11-22T02:50:06;101876.72;;;2.89;100.00
13968;BME280;39536;52.198;9.920;2023-11-22T02:52:33;101878.44;;;2.89;100.00
13968;BME280;39536;52.198;9.920;2023-11-22T02:55:00;101883.59;;;2.89;100.00
13968;BME280;39536;52.198;9.920;2023-11-22T02:57:28;101883.59;;;2.89;100.00
13968;BME280;39536;52.198;9.920;2023-11-22T02:59:55;101881.59;;;2.75;100.00
13968;BME280;39536;52.198;9.920;2023-11-22T03:02:21;101885.03;;;2.74;100.00
13968;BME280;39536;52.198;9.920;2023-11-22T03:04:49;101896.31;;;2.83;100.00
13968;BME280;39536;52.198;9.920;2023-11-22T03:07:16;101906.69;;;2.86;100.00
13968;BME280;39536;52.198;9.920;2023-11-22T03:09:43;101911.75;;;2.83;100.00
13968;BME280;39536;52.198;9.920;2023-11-22T03:12:11;101918.63;;;2.82;100.00
13968;BME280;39536;52.198;9.920;2023-11-22T03:14:39;101923.75;;;2.81;100.00
13968;BME280;39536;52.198;9.920;2023-11-22T03:17:06;101920.16;;;2.74;100.00
13968;BME280;39536;52.198;9.920;2023-11-22T03:19:33;101928.72;;;2.73;100.00
13968;BME280;39536;52.198;9.920;2023-11-22T03:22:00;101938.78;;;2.64;100.00
13968;BME280;39536;52.198;9.920;2023-11-22T03:24:28;101936.34;;;2.70;100.00
13968;BME280;39536;52.198;9.920;2023-11-22T03:26:55;101951.03;;;2.74;100.00
13968;BME280;39536;52.198;9.920;2023-11-22T03:29:24;101951.59;;;2.61;100.00
13968;BME280;39536;52.198;9.920;2023-11-22T03:31:52;101955.91;;;2.62;100.00
13968;BME280;39536;52.198;9.920;2023-11-22T03:34:19;101960.91;;;2.56;100.00
13968;BME280;39536;52.198;9.920;2023-11-22T03:36:46;101960.16;;;2.61;100.00
13968;BME280;39536;52.198;9.920;2023-11-22T03:39:15;101953.38;;;2.65;100.00
13968;BME280;39536;52.198;9.920;2023-11-22T03:41:42;101950.94;;;2.69;100.00
13968;BME280;39536;52.198;9.920;2023-11-22T03:44:09;101952.78;;;2.75;100.00
13968;BME280;39536;52.198;9.920;2023-11-22T03:46:36;101953.06;;;2.87;100.00
13968;BME280;39536;52.198;9.920;2023-11-22T03:49:04;101972.00;;;2.91;100.00
13968;BME280;39536;52.198;9.920;2023-11-22T03:51:32;101969.56;;;2.97;100.00
13968;BME280;39536;52.198;9.920;2023-11-22T03:53:59;101965.28;;;2.97;100.00
13968;BME280;39536;52.198;9.920;2023-11-22T03:56:26;101963.69;;;3.03;100.00
13968;BME280;39536;52.198;9.920;2023-11-22T03:58:53;101969.03;;;3.12;100.00
13968;BME280;39536;52.198;9.920;2023-11-22T04:01:19;101971.72;;;3.18;100.00
13968;BME280;39536;52.198;9.920;2023-11-22T04:03:46;101967.53;;;3.23;100.00
13968;BME280;39536;52.198;9.920;2023-11-22T04:06:15;101978.56;;;3.17;100.00
13968;BME280;39536;52.198;9.920;2023-11-22T04:08:42;101975.09;;;3.15;100.00
13968;BME280;39536;52.198;9.920;2023-11-22T04:11:09;101971.41;;;3.03;100.00
13968;BME280;39536;52.198;9.920;2023-11-22T04:13:36;101968.50;;;2.87;100.00
13968;BME280;39536;52.198;9.920;2023-11-22T04:16:04;101975.53;;;2.96;100.00
13968;BME280;39536;52.198;9.920;2023-11-22T04:18:33;101977.03;;;2.86;100.00
13968;BME280;39536;52.198;9.920;2023-11-22T04:21:00;101986.38;;;2.83;100.00
13968;BME280;39536;52.198;9.920;2023-11-22T04:23:31;101988.81;;;2.76;100.00
13968;BME280;39536;52.198;9.920;2023-11-22T04:25:58;101987.72;;;2.65;100.00
13968;BME280;39536;52.198;9.920;2023-11-22T04:28:25;101994.59;;;2.66;100.00
13968;BME280;39536;52.198;9.920;2023-11-22T04:30:51;101999.44;;;2.54;100.00
13968;BME280;39536;52.198;9.920;2023-11-22T04:33:18;102009.03;;;2.61;100.00
13968;BME280;39536;52.198;9.920;2023-11-22T04:35:45;102006.38;;;2.57;100.00
13968;BME280;39536;52.198;9.920;2023-11-22T04:38:12;102012.31;;;2.54;100.00
13968;BME280;39536;52.198;9.920;2023-11-22T04:40:40;102020.25;;;2.65;100.00
13968;BME280;39536;52.198;9.920;2023-11-22T04:43:07;102017.44;;;2.54;100.00
13968;BME280;39536;52.198;9.920;2023-11-22T04:45:34;102012.84;;;2.41;100.00
13968;BME280;39536;52.198;9.920;2023-11-22T04:48:01;102018.06;;;2.44;100.00
13968;BME280;39536;52.198;9.920;2023-11-22T04:50:27;102013.16;;;2.54;100.00
13968;BME280;39536;52.198;9.920;2023-11-22T04:52:54;102010.81;;;2.64;100.00
13968;BME280;39536;52.198;9.920;2023-11-22T04:55:21;102005.03;;;2.74;100.00
13968;BME280;39536;52.198;9.920;2023-11-22T04:57:49;102014.31;;;2.67;100.00
13968;BME280;39536;52.198;9.920;2023-11-22T05:00:18;102016.19;;;2.73;100.00
13968;BME280;39536;52.198;9.920;2023-11-22T05:02:45;102023.75;;;2.67;100.00
13968;BME280;39536;52.198;9.920;2023-11-22T05:05:11;102019.47;;;2.67;100.00
13968;BME280;39536;52.198;9.920;2023-11-22T05:07:38;102023.81;;;2.68;100.00
13968;BME280;39536;52.198;9.920;2023-11-22T05:10:06;102026.25;;;2.64;100.00
13968;BME280;39536;52.198;9.920;2023-11-22T05:12:33;102022.75;;;2.60;100.00
13968;BME280;39536;52.198;9.920;2023-11-22T05:15:01;102018.31;;;2.54;100.00
13968;BME280;39536;52.198;9.920;2023-11-22T05:17:28;102016.59;;;2.55;100.00
13968;BME280;39536;52.198;9.920;2023-11-22T05:19:55;102017.44;;;2.54;100.00
13968;BME280;39536;52.198;9.920;2023-11-22T05:22:22;102017.44;;;2.52;100.00
13968;BME280;39536;52.198;9.920;2023-11-22T05:24:49;102020.97;;;2.58;100.00
13968;BME280;39536;52.198;9.920;2023-11-22T05:27:15;102027.97;;;2.65;100.00
13968;BME280;39536;52.198;9.920;2023-11-22T05:29:42;102020.41;;;2.71;100.00
13968;BME280;39536;52.198;9.920;2023-11-22T05:32:10;102016.09;;;2.70;100.00
13968;BME280;39536;52.198;9.920;2023-11-22T05:34:37;102009.03;;;2.61;100.00
13968;BME280;39536;52.198;9.920;2023-11-22T05:37:06;102019.41;;;2.64;100.00
13968;BME280;39536;52.198;9.920;2023-11-22T05:39:32;102024.63;;;2.67;100.00
13968;BME280;39536;52.198;9.920;2023-11-22T05:41:59;102033.34;;;2.74;100.00
13968;BME280;39536;52.198;9.920;2023-11-22T05:44:26;102023.69;;;2.64;100.00
13968;BME280;39536;52.198;9.920;2023-11-22T05:46:52;102016.88;;;2.66;100.00
13968;BME280;39536;52.198;9.920;2023-11-22T05:49:21;102019.31;;;2.60;100.00
13968;BME280;39536;52.198;9.920;2023-11-22T05:51:47;102016.66;;;2.57;100.00
13968;BME280;39536;52.198;9.920;2023-11-22T05:54:14;102025.06;;;2.49;100.00
13968;BME280;39536;52.198;9.920;2023-11-22T05:56:42;102027.59;;;2.48;100.00
13968;BME280;39536;52.198;9.920;2023-11-22T05:59:08;102037.00;;;2.47;100.00
13968;BME280;39536;52.198;9.920;2023-11-22T06:01:35;102041.31;;;2.48;100.00
13968;BME280;39536;52.198;9.920;2023-11-22T06:04:01;102047.28;;;2.47;100.00
13968;BME280;39536;52.198;9.920;2023-11-22T06:06:30;102058.44;;;2.46;100.00
13968;BME280;39536;52.198;9.920;2023-11-22T06:08:57;102076.53;;;2.51;100.00
13968;BME280;39536;52.198;9.920;2023-11-22T06:11:23;102081.66;;;2.51;100.00
13968;BME280;39536;52.198;9.920;2023-11-22T06:13:50;102086.03;;;2.53;100.00
13968;BME280;39536;52.198;9.920;2023-11-22T06:16:17;102091.19;;;2.55;100.00
13968;BME280;39536;52.198;9.920;2023-11-22T06:18:44;102096.41;;;2.57;100.00
13968;BME280;39536;52.198;9.920;2023-11-22T06:21:10;102094.66;;;2.56;100.00
13968;BME280;39536;52.198;9.920;2023-11-22T06:23:38;102098.09;;;2.56;100.00
13968;BME280;39536;52.198;9.920;2023-11-22T06:26:05;102091.16;;;2.53;100.00
13968;BME280;39536;52.198;9.920;2023-11-22T06:28:32;102093.66;;;2.50;100.00
13968;BME280;39536;52.198;9.920;2023-11-22T06:31:00;102092.72;;;2.47;100.00
13968;BME280;39536;52.198;9.920;2023-11-22T06:33:26;102097.63;;;2.38;100.00
13968;BME280;39536;52.198;9.920;2023-11-22T06:35:53;102099.09;;;2.29;100.00
13968;BME280;39536;52.198;9.920;2023-11-22T06:38:20;102100.91;;;2.32;100.00
13968;BME280;39536;52.198;9.920;2023-11-22T06:40:48;102102.00;;;2.42;100.00
13968;BME280;39536;52.198;9.920;2023-11-22T06:43:14;102099.28;;;2.36;100.00
13968;BME280;39536;52.198;9.920;2023-11-22T06:45:41;102098.59;;;2.43;100.00
13968;BME280;39536;52.198;9.920;2023-11-22T06:48:08;102102.16;;;2.46;100.00
13968;BME280;39536;52.198;9.920;2023-11-22T06:50:35;102102.06;;;2.43;100.00
13968;BME280;39536;52.198;9.920;2023-11-22T06:53:01;102095.28;;;2.47;100.00
13968;BME280;39536;52.198;9.920;2023-11-22T06:55:28;102089.44;;;2.52;100.00
13968;BME280;39536;52.198;9.920;2023-11-22T06:57:57;102082.53;;;2.51;100.00
13968;BME280;39536;52.198;9.920;2023-11-22T07:00:24;102078.38;;;2.57;100.00
13968;BME280;39536;52.198;9.920;2023-11-22T07:02:52;102070.69;;;2.58;100.00
13968;BME280;39536;52.198;9.920;2023-11-22T07:05:19;102074.91;;;2.54;100.00
13968;BME280;39536;52.198;9.920;2023-11-22T07:07:46;102072.00;;;2.42;100.00
13968;BME280;39536;52.198;9.920;2023-11-22T07:10:15;102083.94;;;2.39;100.00
13968;BME280;39536;52.198;9.920;2023-11-22T07:12:46;102082.38;;;2.45;100.00
13968;BME280;39536;52.198;9.920;2023-11-22T07:15:14;102091.03;;;2.49;100.00
13968;BME280;39536;52.198;9.920;2023-11-22T07:17:41;102075.66;;;2.50;100.00
13968;BME280;39536;52.198;9.920;2023-11-22T07:20:08;102081.72;;;2.52;100.00
13968;BME280;39536;52.198;9.920;2023-11-22T07:22:41;102085.31;;;2.59;100.00
13968;BME280;39536;52.198;9.920;2023-11-22T07:25:08;102072.47;;;2.61;100.00
13968;BME280;39536;52.198;9.920;2023-11-22T07:27:43;102075.97;;;2.63;100.00
13968;BME280;39536;52.198;9.920;2023-11-22T07:30:11;102065.91;;;2.72;100.00
13968;BME280;39536;52.198;9.920;2023-11-22T07:32:40;102072.06;;;2.78;100.00
13968;BME280;39536;52.198;9.920;2023-11-22T07:35:07;102069.66;;;2.85;100.00
13968;BME280;39536;52.198;9.920;2023-11-22T07:37:34;102063.63;;;2.84;100.00
13968;BME280;39536;52.198;9.920;2023-11-22T07:40:01;102065.44;;;2.88;100.00
13968;BME280;39536;52.198;9.920;2023-11-22T07:42:29;102049.28;;;2.94;100.00
13968;BME280;39536;52.198;9.920;2023-11-22T07:44:56;102048.56;;;2.99;100.00
13968;BME280;39536;52.198;9.920;2023-11-22T07:47:23;102049.56;;;3.08;100.00
13968;BME280;39536;52.198;9.920;2023-11-22T07:49:54;102058.31;;;3.14;100.00
13968;BME280;39536;52.198;9.920;2023-11-22T07:52:21;102058.22;;;3.10;100.00
13968;BME280;39536;52.198;9.920;2023-11-22T07:54:48;102055.56;;;3.07;100.00
13968;BME280;39536;52.198;9.920;2023-11-22T07:57:17;102064.00;;;2.99;100.00
13968;BME280;39536;52.198;9.920;2023-11-22T07:59:45;102076.03;;;3.02;100.00
13968;BME280;39536;52.198;9.920;2023-11-22T08:02:12;102081.25;;;3.05;100.00
13968;BME280;39536;52.198;9.920;2023-11-22T08:04:40;102083.75;;;3.00;100.00
13968;BME280;39536;52.198;9.920;2023-11-22T08:07:11;102073.66;;;3.10;100.00
13968;BME280;39536;52.198;9.920;2023-11-22T08:09:40;102097.81;;;3.15;100.00
13968;BME280;39536;52.198;9.920;2023-11-22T08:12:06;102086.84;;;3.23;100.00
13968;BME280;39536;52.198;9.920;2023-11-22T08:14:33;102077.50;;;3.27;100.00
13968;BME280;39536;52.198;9.920;2023-11-22T08:17:00;102087.72;;;3.24;100.00
13968;BME280;39536;52.198;9.920;2023-11-22T08:19:27;102097.34;;;3.33;100.00
13968;BME280;39536;52.198;9.920;2023-11-22T08:21:53;102111.22;;;3.39;100.00
13968;BME280;39536;52.198;9.920;2023-11-22T08:24:21;102104.38;;;3.40;100.00
13968;BME280;39536;52.198;9.920;2023-11-22T08:26:48;102114.84;;;3.47;100.00
13968;BME280;39536;52.198;9.920;2023-11-22T08:29:15;102125.25;;;3.52;100.00
13968;BME280;39536;52.198;9.920;2023-11-22T08:31:41;102129.53;;;3.52;100.00
13968;BME280;39536;52.198;9.920;2023-11-22T08:34:08;102133.06;;;3.55;100.00
13968;BME280;39536;52.198;9.920;2023-11-22T08:36:36;102140.91;;;3.61;100.00
13968;BME280;39536;52.198;9.920;2023-11-22T08:39:04;102147.94;;;3.68;100.00
13968;BME280;39536;52.198;9.920;2023-11-22T08:41:32;102147.09;;;3.68;100.00
13968;BME280;39536;52.198;9.920;2023-11-22T08:44:02;102159.81;;;3.62;100.00
13968;BME280;39536;52.198;9.920;2023-11-22T08:46:29;102176.25;;;3.67;100.00
13968;BME280;39536;52.198;9.920;2023-11-22T08:48:59;102178.06;;;3.71;100.00
13968;BME280;39536;52.198;9.920;2023-11-22T08:51:27;102163.81;;;3.88;100.00
13968;BME280;39536;52.198;9.920;2023-11-22T08:53:54;102156.28;;;3.96;100.00
13968;BME280;39536;52.198;9.920;2023-11-22T08:56:21;102145.19;;;4.02;100.00
13968;BME280;39536;52.198;9.920;2023-11-22T08:58:50;102137.75;;;4.15;100.00
13968;BME280;39536;52.198;9.920;2023-11-22T09:01:16;102136.00;;;4.14;100.00
13968;BME280;39536;52.198;9.920;2023-11-22T09:03:44;102142.06;;;4.16;100.00
13968;BME280;39536;52.198;9.920;2023-11-22T09:06:10;102145.59;;;4.22;100.00
13968;BME280;39536;52.198;9.920;2023-11-22T09:08:38;102131.91;;;4.26;100.00
13968;BME280;39536;52.198;9.920;2023-11-22T09:11:05;102131.13;;;4.30;100.00
13968;BME280;39536;52.198;9.920;2023-11-22T09:13:32;102126.97;;;4.36;100.00
13968;BME280;39536;52.198;9.920;2023-11-22T09:16:02;102134.81;;;4.43;100.00
13968;BME280;39536;52.198;9.920;2023-11-22T09:18:30;102144.25;;;4.40;100.00
13968;BME280;39536;52.198;9.920;2023-11-22T09:20:57;102147.56;;;4.33;100.00
13968;BME280;39536;52.198;9.920;2023-11-22T09:23:23;102148.44;;;4.35;100.00
13968;BME280;39536;52.198;9.920;2023-11-22T09:25:51;102164.91;;;4.42;100.00
13968;BME280;39536;52.198;9.920;2023-11-22T09:28:18;102151.25;;;4.48;100.00
13968;BME280;39536;52.198;9.920;2023-11-22T09:30:45;102144.47;;;4.53;100.00
13968;BME280;39536;52.198;9.920;2023-11-22T09:33:15;102142.06;;;4.62;100.00
13968;BME280;39536;52.198;9.920;2023-11-22T09:35:42;102148.94;;;4.63;100.00
13968;BME280;39536;52.198;9.920;2023-11-22T09:38:11;102154.06;;;4.60;100.00
13968;BME280;39536;52.198;9.920;2023-11-22T09:40:40;102148.25;;;4.72;100.00
13968;BME280;39536;52.198;9.920;2023-11-22T09:43:07;102133.56;;;4.69;100.00
13968;BME280;39536;52.198;9.920;2023-11-22T09:45:34;102128.41;;;4.69;100.00
13968;BME280;39536;52.198;9.920;2023-11-22T09:51:33;102118.22;;;4.77;100.00
13968;BME280;39536;52.198;9.920;2023-11-22T09:54:04;102104.31;;;4.70;100.00
13968;BME280;39536;52.198;9.920;2023-11-22T09:56:34;102099.34;;;4.81;100.00
13968;BME280;39536;52.198;9.920;2023-11-22T09:59:03;102092.41;;;4.78;100.00
13968;BME280;39536;52.198;9.920;2023-11-22T10:01:32;102080.72;;;4.47;100.00
13968;BME280;39536;52.198;9.920;2023-11-22T10:04:02;102090.13;;;4.44;100.00
13968;BME280;39536;52.198;9.920;2023-11-22T10:06:32;102114.13;;;4.39;100.00
13968;BME280;39536;52.198;9.920;2023-11-22T10:09:01;102118.72;;;4.57;100.00
13968;BME280;39536;52.198;9.920;2023-11-22T10:11:28;102121.56;;;4.73;100.00
13968;BME280;39536;52.198;9.920;2023-11-22T10:13:55;102126.78;;;4.74;100.00
13968;BME280;39536;52.198;9.920;2023-11-22T10:16:22;102133.50;;;4.66;100.00
13968;BME280;39536;52.198;9.920;2023-11-22T10:18:49;102131.84;;;4.68;100.00
13968;BME280;39536;52.198;9.920;2023-11-22T10:21:22;102147.22;;;4.62;100.00
13968;BME280;39536;52.198;9.920;2023-11-22T10:23:51;102143.84;;;4.66;100.00
13968;BME280;39536;52.198;9.920;2023-11-22T10:26:19;102143.13;;;4.75;100.00
13968;BME280;39536;52.198;9.920;2023-11-22T10:28:46;102142.38;;;4.80;100.00
13968;BME280;39536;52.198;9.920;2023-11-22T10:31:24;102152.72;;;4.80;100.00
13968;BME280;39536;52.198;9.920;2023-11-22T10:33:50;102153.72;;;4.92;100.00
13968;BME280;39536;52.198;9.920;2023-11-22T10:36:18;102153.97;;;5.05;100.00
13968;BME280;39536;52.198;9.920;2023-11-22T10:38:46;102165.94;;;4.99;100.00
13968;BME280;39536;52.198;9.920;2023-11-22T10:41:14;102175.41;;;5.00;100.00
13968;BME280;39536;52.198;9.920;2023-11-22T10:43:44;102177.31;;;5.12;100.00
13968;BME280;39536;52.198;9.920;2023-11-22T10:46:12;102173.94;;;5.14;100.00
13968;BME280;39536;52.198;9.920;2023-11-22T10:48:41;102165.53;;;5.29;100.00
13968;BME280;39536;52.198;9.920;2023-11-22T10:51:13;102159.69;;;5.41;100.00
13968;BME280;39536;52.198;9.920;2023-11-22T10:53:45;102145.75;;;5.31;100.00
13968;BME280;39536;52.198;9.920;2023-11-22T10:56:15;102143.22;;;5.34;100.00
13968;BME280;39536;52.198;9.920;2023-11-22T10:58:47;102140.69;;;5.39;100.00
13968;BME280;39536;52.198;9.920;2023-11-22T11:01:15;102144.75;;;5.21;100.00
13968;BME280;39536;52.198;9.920;2023-11-22T11:03:49;102150.03;;;5.27;100.00
13968;BME280;39536;52.198;9.920;2023-11-22T11:06:26;102138.81;;;5.28;100.00
13968;BME280;39536;52.198;9.920;2023-11-22T11:08:59;102119.19;;;5.40;100.00
13968;BME280;39536;52.198;9.920;2023-11-22T11:11:27;102132.75;;;5.26;100.00
13968;BME280;39536;52.198;9.920;2023-11-22T11:13:56;102119.88;;;5.29;100.00
13968;BME280;39536;52.198;9.920;2023-11-22T11:16:23;102117.44;;;5.39;100.00
13968;BME280;39536;52.198;9.920;2023-11-22T11:18:52;102104.59;;;5.45;100.00
13968;BME280;39536;52.198;9.920;2023-11-22T11:21:19;102094.31;;;5.46;100.00
13968;BME280;39536;52.198;9.920;2023-11-22T11:23:45;102093.31;;;5.38;100.00
13968;BME280;39536;52.198;9.920;2023-11-22T11:26:16;102089.78;;;5.31;100.00
13968;BME280;39536;52.198;9.920;2023-11-22T11:28:47;102091.22;;;5.11;100.00
13968;BME280;39536;52.198;9.920;2023-11-22T11:31:14;102098.31;;;5.26;100.00
13968;BME280;39536;52.198;9.920;2023-11-22T11:33:56;102086.56;;;5.46;100.00
13968;BME280;39536;52.198;9.920;2023-11-22T11:36:24;102077.25;;;5.59;100.00
13968;BME280;39536;52.198;9.920;2023-11-22T11:38:55;102074.63;;;5.54;100.00
13968;BME280;39536;52.198;9.920;2023-11-22T11:41:25;102070.97;;;5.40;100.00
13968;BME280;39536;52.198;9.920;2023-11-22T11:43:53;102065.84;;;5.43;100.00
13968;BME280;39536;52.198;9.920;2023-11-22T11:46:21;102045.16;;;5.45;100.00
13968;BME280;39536;52.198;9.920;2023-11-22T11:48:49;102048.06;;;5.69;100.00
13968;BME280;39536;52.198;9.920;2023-11-22T11:51:19;102051.69;;;5.84;100.00
13968;BME280;39536;52.198;9.920;2023-11-22T11:53:46;102041.56;;;5.99;100.00
13968;BME280;39536;52.198;9.920;2023-11-22T11:56:13;102034.00;;;6.20;100.00
13968;BME280;39536;52.198;9.920;2023-11-22T11:58:41;102030.56;;;6.21;100.00
13968;BME280;39536;52.198;9.920;2023-11-22T12:01:08;102027.25;;;6.36;100.00
13968;BME280;39536;52.198;9.920;2023-11-22T12:03:36;102021.22;;;6.36;100.00
13968;BME280;39536;52.198;9.920;2023-11-22T12:06:04;102003.13;;;6.39;100.00
13968;BME280;39536;52.198;9.920;2023-11-22T12:08:32;101997.97;;;6.42;100.00
13968;BME280;39536;52.198;9.920;2023-11-22T12:11:05;101967.66;;;6.32;100.00
13968;BME280;39536;52.198;9.920;2023-11-22T12:13:34;101967.63;;;6.25;100.00
13968;BME280;39536;52.198;9.920;2023-11-22T12:16:06;101960.78;;;6.31;100.00
13968;BME280;39536;52.198;9.920;2023-11-22T12:18:39;101968.56;;;6.34;100.00
13968;BME280;39536;52.198;9.920;2023-11-22T12:21:06;101960.88;;;6.43;100.00
13968;BME280;39536;52.198;9.920;2023-11-22T12:23:34;101942.75;;;6.44;100.00
13968;BME280;39536;52.198;9.920;2023-11-22T12:26:04;101936.63;;;6.35;100.00
13968;BME280;39536;52.198;9.920;2023-11-22T12:28:31;101927.06;;;6.23;100.00
13968;BME280;39536;52.198;9.920;2023-11-22T12:31:06;101920.22;;;6.28;100.00
13968;BME280;39536;52.198;9.920;2023-11-22T12:33:34;101927.94;;;6.23;100.00
13968;BME280;39536;52.198;9.920;2023-11-22T12:36:01;101919.34;;;6.29;100.00
13968;BME280;39536;52.198;9.920;2023-11-22T12:38:29;101923.72;;;6.38;100.00
13968;BME280;39536;52.198;9.920;2023-11-22T12:40:58;101902.13;;;6.31;100.00
13968;BME280;39536;52.198;9.920;2023-11-22T12:43:28;101889.88;;;6.06;100.00
13968;BME280;39536;52.198;9.920;2023-11-22T12:45:59;101894.88;;;5.89;100.00
13968;BME280;39536;52.198;9.920;2023-11-22T12:48:26;101888.53;;;5.54;100.00
13968;BME280;39536;52.198;9.920;2023-11-22T12:50:55;101922.78;;;5.38;100.00
13968;BME280;39536;52.198;9.920;2023-11-22T12:53:22;101938.25;;;5.35;100.00
13968;BME280;39536;52.198;9.920;2023-11-22T12:55:53;101965.03;;;5.42;100.00